sensor_id;sensor_type;location;lat;lon;timestamp;P1;durP1;ratioP1;P2;durP2;ratioP2
74612;SDS011;63119;51.788;8.824;2023-01-23T00:01:40;14.70;;;7.23;;
74612;SDS011;63119;51.788;8.824;2023-01-23T00:04:06;16.15;;;8.95;;
74612;SDS011;63119;51.788;8.824;2023-01-23T00:06:31;15.83;;;7.57;;
74612;SDS011;63119;51.788;8.824;2023-01-23T00:08:56;15.50;;;8.63;;
74612;SDS011;63119;51.788;8.824;2023-01-23T00:11:23;13.70;;;7.83;;
74612;SDS011;63119;51.788;8.824;2023-01-23T00:13:50;13.38;;;7.75;;
74612;SDS011;63119;51.788;8.824;2023-01-23T00:16:17;15.45;;;7.82;;
74612;SDS011;63119;51.788;8.824;2023-01-23T00:23:37;12.02;;;5.80;;
74612;SDS011;63119;51.788;8.824;2023-01-23T00:26:05;13.15;;;7.82;;
74612;SDS011;63119;51.788;8.824;2023-01-23T00:28:32;13.55;;;6.80;;
74612;SDS011;63119;51.788;8.824;2023-01-23T00:31:05;12.55;;;6.32;;
74612;SDS011;63119;51.788;8.824;2023-01-23T00:33:32;12.32;;;6.95;;
74612;SDS011;63119;51.788;8.824;2023-01-23T00:35:57;13.65;;;6.97;;
74612;SDS011;63119;51.788;8.824;2023-01-23T00:38:23;14.02;;;7.93;;
74612;SDS011;63119;51.788;8.824;2023-01-23T00:40:48;16.20;;;8.13;;
74612;SDS011;63119;51.788;8.824;2023-01-23T00:43:14;11.63;;;6.85;;
74612;SDS011;63119;51.788;8.824;2023-01-23T00:45:39;13.77;;;7.82;;
74612;SDS011;63119;51.788;8.824;2023-01-23T00:48:05;14.13;;;7.53;;
74612;SDS011;63119;51.788;8.824;2023-01-23T00:50:30;13.80;;;7.28;;
74612;SDS011;63119;51.788;8.824;2023-01-23T00:52:55;14.33;;;7.87;;
74612;SDS011;63119;51.788;8.824;2023-01-23T00:55:21;15.77;;;7.63;;
74612;SDS011;63119;51.788;8.824;2023-01-23T00:57:47;11.87;;;6.90;;
74612;SDS011;63119;51.788;8.824;2023-01-23T01:00:12;11.73;;;7.20;;
74612;SDS011;63119;51.788;8.824;2023-01-23T01:02:37;14.65;;;7.45;;
74612;SDS011;63119;51.788;8.824;2023-01-23T01:05:03;12.53;;;7.10;;
74612;SDS011;63119;51.788;8.824;2023-01-23T01:07:28;16.27;;;7.45;;
74612;SDS011;63119;51.788;8.824;2023-01-23T01:09:53;16.27;;;8.23;;
74612;SDS011;63119;51.788;8.824;2023-01-23T01:12:19;14.33;;;7.00;;
74612;SDS011;63119;51.788;8.824;2023-01-23T01:14:44;13.82;;;7.97;;
74612;SDS011;63119;51.788;8.824;2023-01-23T01:17:09;11.40;;;6.47;;
74612;SDS011;63119;51.788;8.824;2023-01-23T01:19:35;15.47;;;7.60;;
74612;SDS011;63119;51.788;8.824;2023-01-23T01:22:00;13.00;;;7.00;;
74612;SDS011;63119;51.788;8.824;2023-01-23T01:24:26;13.80;;;7.72;;
74612;SDS011;63119;51.788;8.824;2023-01-23T01:26:51;16.27;;;7.73;;
74612;SDS011;63119;51.788;8.824;2023-01-23T01:29:16;13.20;;;7.23;;
74612;SDS011;63119;51.788;8.824;2023-01-23T01:31:41;11.77;;;6.63;;
74612;SDS011;63119;51.788;8.824;2023-01-23T01:34:07;11.20;;;6.43;;
74612;SDS011;63119;51.788;8.824;2023-01-23T01:36:32;8.53;;;5.10;;
74612;SDS011;63119;51.788;8.824;2023-01-23T01:38:57;10.10;;;6.13;;
74612;SDS011;63119;51.788;8.824;2023-01-23T01:41:22;11.73;;;6.10;;
74612;SDS011;63119;51.788;8.824;2023-01-23T01:43:48;9.53;;;5.60;;
74612;SDS011;63119;51.788;8.824;2023-01-23T01:54:22;12.68;;;6.40;;
74612;SDS011;63119;51.788;8.824;2023-01-23T01:56:57;10.13;;;5.40;;
74612;SDS011;63119;51.788;8.824;2023-01-23T01:59:29;11.30;;;5.68;;
74612;SDS011;63119;51.788;8.824;2023-01-23T02:02:01;11.60;;;5.85;;
74612;SDS011;63119;51.788;8.824;2023-01-23T02:04:31;13.25;;;6.47;;
74612;SDS011;63119;51.788;8.824;2023-01-23T02:06:58;12.50;;;6.60;;
74612;SDS011;63119;51.788;8.824;2023-01-23T02:09:29;12.63;;;6.45;;
74612;SDS011;63119;51.788;8.824;2023-01-23T02:11:57;11.80;;;6.03;;
74612;SDS011;63119;51.788;8.824;2023-01-23T02:14:24;12.27;;;6.13;;
74612;SDS011;63119;51.788;8.824;2023-01-23T02:16:49;10.57;;;5.78;;
74612;SDS011;63119;51.788;8.824;2023-01-23T02:21:55;9.07;;;5.57;;
74612;SDS011;63119;51.788;8.824;2023-01-23T02:24:34;9.57;;;5.28;;
74612;SDS011;63119;51.788;8.824;2023-01-23T02:27:03;10.57;;;5.30;;
74612;SDS011;63119;51.788;8.824;2023-01-23T02:29:38;13.10;;;6.63;;
74612;SDS011;63119;51.788;8.824;2023-01-23T02:32:05;11.00;;;5.93;;
74612;SDS011;63119;51.788;8.824;2023-01-23T02:34:31;10.10;;;5.23;;
74612;SDS011;63119;51.788;8.824;2023-01-23T02:36:56;11.93;;;6.35;;
74612;SDS011;63119;51.788;8.824;2023-01-23T02:39:22;8.77;;;5.07;;
74612;SDS011;63119;51.788;8.824;2023-01-23T02:41:48;11.63;;;5.20;;
74612;SDS011;63119;51.788;8.824;2023-01-23T02:44:27;8.80;;;4.82;;
74612;SDS011;63119;51.788;8.824;2023-01-23T02:46:57;11.30;;;5.18;;
74612;SDS011;63119;51.788;8.824;2023-01-23T02:49:24;9.70;;;4.82;;
74612;SDS011;63119;51.788;8.824;2023-01-23T02:51:50;11.50;;;5.93;;
74612;SDS011;63119;51.788;8.824;2023-01-23T02:54:17;8.48;;;4.65;;
74612;SDS011;63119;51.788;8.824;2023-01-23T02:56:43;9.30;;;5.15;;
74612;SDS011;63119;51.788;8.824;2023-01-23T02:59:09;9.52;;;5.30;;
74612;SDS011;63119;51.788;8.824;2023-01-23T03:01:53;11.82;;;5.70;;
74612;SDS011;63119;51.788;8.824;2023-01-23T03:04:19;10.27;;;5.45;;
74612;SDS011;63119;51.788;8.824;2023-01-23T03:06:44;10.27;;;6.50;;
74612;SDS011;63119;51.788;8.824;2023-01-23T03:09:11;8.60;;;4.70;;
74612;SDS011;63119;51.788;8.824;2023-01-23T03:11:40;10.23;;;5.35;;
74612;SDS011;63119;51.788;8.824;2023-01-23T03:14:08;9.85;;;5.20;;
74612;SDS011;63119;51.788;8.824;2023-01-23T03:16:35;9.85;;;5.97;;
74612;SDS011;63119;51.788;8.824;2023-01-23T03:19:02;12.48;;;5.93;;
74612;SDS011;63119;51.788;8.824;2023-01-23T03:21:30;10.10;;;5.18;;
74612;SDS011;63119;51.788;8.824;2023-01-23T03:23:56;11.50;;;6.53;;
74612;SDS011;63119;51.788;8.824;2023-01-23T03:26:21;12.80;;;6.57;;
74612;SDS011;63119;51.788;8.824;2023-01-23T03:28:47;12.68;;;7.22;;
74612;SDS011;63119;51.788;8.824;2023-01-23T03:31:31;14.27;;;7.57;;
74612;SDS011;63119;51.788;8.824;2023-01-23T03:33:56;14.57;;;6.83;;
74612;SDS011;63119;51.788;8.824;2023-01-23T03:36:21;15.57;;;6.77;;
74612;SDS011;63119;51.788;8.824;2023-01-23T03:38:47;12.93;;;6.95;;
74612;SDS011;63119;51.788;8.824;2023-01-23T03:41:31;12.75;;;6.70;;
74612;SDS011;63119;51.788;8.824;2023-01-23T03:43:56;13.17;;;6.97;;
74612;SDS011;63119;51.788;8.824;2023-01-23T03:46:21;14.70;;;7.10;;
74612;SDS011;63119;51.788;8.824;2023-01-23T03:48:47;15.18;;;7.55;;
74612;SDS011;63119;51.788;8.824;2023-01-23T03:51:12;16.43;;;7.47;;
74612;SDS011;63119;51.788;8.824;2023-01-23T03:53:38;16.08;;;8.25;;
74612;SDS011;63119;51.788;8.824;2023-01-23T03:56:03;16.50;;;7.30;;
74612;SDS011;63119;51.788;8.824;2023-01-23T03:58:28;16.05;;;7.05;;
74612;SDS011;63119;51.788;8.824;2023-01-23T04:00:54;15.73;;;8.18;;
74612;SDS011;63119;51.788;8.824;2023-01-23T04:03:20;18.48;;;8.60;;
74612;SDS011;63119;51.788;8.824;2023-01-23T04:05:45;20.25;;;8.52;;
74612;SDS011;63119;51.788;8.824;2023-01-23T04:08:10;20.03;;;7.87;;
74612;SDS011;63119;51.788;8.824;2023-01-23T04:10:36;15.73;;;7.50;;
74612;SDS011;63119;51.788;8.824;2023-01-23T04:13:01;18.60;;;8.43;;
74612;SDS011;63119;51.788;8.824;2023-01-23T04:15:27;14.10;;;7.45;;
74612;SDS011;63119;51.788;8.824;2023-01-23T04:17:52;18.23;;;7.83;;
74612;SDS011;63119;51.788;8.824;2023-01-23T04:20:18;17.00;;;7.67;;
74612;SDS011;63119;51.788;8.824;2023-01-23T04:22:43;17.27;;;7.50;;
74612;SDS011;63119;51.788;8.824;2023-01-23T04:25:08;20.53;;;8.20;;
74612;SDS011;63119;51.788;8.824;2023-01-23T04:27:34;17.20;;;7.37;;
74612;SDS011;63119;51.788;8.824;2023-01-23T04:29:59;16.15;;;7.03;;
74612;SDS011;63119;51.788;8.824;2023-01-23T04:32:24;18.53;;;8.07;;
74612;SDS011;63119;51.788;8.824;2023-01-23T04:34:50;15.63;;;7.00;;
74612;SDS011;63119;51.788;8.824;2023-01-23T04:37:15;15.90;;;7.15;;
74612;SDS011;63119;51.788;8.824;2023-01-23T04:39:41;16.77;;;7.65;;
74612;SDS011;63119;51.788;8.824;2023-01-23T04:42:06;12.75;;;6.47;;
74612;SDS011;63119;51.788;8.824;2023-01-23T04:44:31;14.43;;;6.30;;
74612;SDS011;63119;51.788;8.824;2023-01-23T04:46:57;16.47;;;7.67;;
74612;SDS011;63119;51.788;8.824;2023-01-23T04:49:22;12.30;;;6.13;;
74612;SDS011;63119;51.788;8.824;2023-01-23T04:51:48;15.73;;;6.00;;
74612;SDS011;63119;51.788;8.824;2023-01-23T04:54:14;11.57;;;6.20;;
74612;SDS011;63119;51.788;8.824;2023-01-23T04:56:41;11.25;;;5.53;;
74612;SDS011;63119;51.788;8.824;2023-01-23T04:59:07;11.93;;;5.50;;
74612;SDS011;63119;51.788;8.824;2023-01-23T05:01:32;11.40;;;5.57;;
74612;SDS011;63119;51.788;8.824;2023-01-23T05:03:57;10.38;;;5.35;;
74612;SDS011;63119;51.788;8.824;2023-01-23T05:06:23;13.87;;;7.43;;
74612;SDS011;63119;51.788;8.824;2023-01-23T05:08:48;11.10;;;6.07;;
74612;SDS011;63119;51.788;8.824;2023-01-23T05:11:13;9.07;;;4.68;;
74612;SDS011;63119;51.788;8.824;2023-01-23T05:13:39;12.07;;;6.40;;
74612;SDS011;63119;51.788;8.824;2023-01-23T05:16:04;13.90;;;6.20;;
74612;SDS011;63119;51.788;8.824;2023-01-23T05:18:29;13.32;;;5.78;;
74612;SDS011;63119;51.788;8.824;2023-01-23T05:20:54;13.33;;;6.77;;
74612;SDS011;63119;51.788;8.824;2023-01-23T05:23:20;15.17;;;6.87;;
74612;SDS011;63119;51.788;8.824;2023-01-23T05:25:45;11.30;;;6.80;;
74612;SDS011;63119;51.788;8.824;2023-01-23T05:28:10;15.45;;;6.93;;
74612;SDS011;63119;51.788;8.824;2023-01-23T05:30:36;17.08;;;7.53;;
74612;SDS011;63119;51.788;8.824;2023-01-23T05:33:01;17.95;;;7.97;;
74612;SDS011;63119;51.788;8.824;2023-01-23T05:35:27;13.80;;;6.78;;
74612;SDS011;63119;51.788;8.824;2023-01-23T05:37:52;12.35;;;6.72;;
74612;SDS011;63119;51.788;8.824;2023-01-23T05:40:18;14.43;;;6.97;;
74612;SDS011;63119;51.788;8.824;2023-01-23T05:42:45;13.88;;;6.38;;
74612;SDS011;63119;51.788;8.824;2023-01-23T05:45:10;15.93;;;8.02;;
74612;SDS011;63119;51.788;8.824;2023-01-23T05:47:36;15.02;;;7.10;;
74612;SDS011;63119;51.788;8.824;2023-01-23T05:50:02;14.18;;;7.78;;
74612;SDS011;63119;51.788;8.824;2023-01-23T05:52:28;12.90;;;6.47;;
74612;SDS011;63119;51.788;8.824;2023-01-23T05:54:53;13.43;;;6.77;;
74612;SDS011;63119;51.788;8.824;2023-01-23T05:57:19;13.23;;;6.53;;
74612;SDS011;63119;51.788;8.824;2023-01-23T05:59:44;14.60;;;6.80;;
74612;SDS011;63119;51.788;8.824;2023-01-23T06:02:09;14.53;;;6.37;;
74612;SDS011;63119;51.788;8.824;2023-01-23T06:04:34;13.73;;;6.20;;
74612;SDS011;63119;51.788;8.824;2023-01-23T06:07:00;11.67;;;5.53;;
74612;SDS011;63119;51.788;8.824;2023-01-23T06:09:25;11.07;;;5.27;;
74612;SDS011;63119;51.788;8.824;2023-01-23T06:11:50;10.83;;;4.90;;
74612;SDS011;63119;51.788;8.824;2023-01-23T06:14:16;12.97;;;6.13;;
74612;SDS011;63119;51.788;8.824;2023-01-23T06:16:41;12.50;;;5.90;;
74612;SDS011;63119;51.788;8.824;2023-01-23T06:19:06;11.77;;;5.90;;
74612;SDS011;63119;51.788;8.824;2023-01-23T06:21:31;12.50;;;5.60;;
74612;SDS011;63119;51.788;8.824;2023-01-23T06:24:00;14.70;;;6.40;;
74612;SDS011;63119;51.788;8.824;2023-01-23T06:28:50;13.48;;;6.28;;
74612;SDS011;63119;51.788;8.824;2023-01-23T06:31:16;13.70;;;6.17;;
74612;SDS011;63119;51.788;8.824;2023-01-23T06:33:41;11.90;;;6.15;;
74612;SDS011;63119;51.788;8.824;2023-01-23T06:36:06;11.27;;;5.67;;
74612;SDS011;63119;51.788;8.824;2023-01-23T06:38:32;12.10;;;7.13;;
74612;SDS011;63119;51.788;8.824;2023-01-23T06:40:57;12.73;;;7.03;;
74612;SDS011;63119;51.788;8.824;2023-01-23T06:43:23;12.50;;;6.80;;
74612;SDS011;63119;51.788;8.824;2023-01-23T06:45:49;11.57;;;6.03;;
74612;SDS011;63119;51.788;8.824;2023-01-23T06:48:15;13.23;;;6.57;;
74612;SDS011;63119;51.788;8.824;2023-01-23T06:50:41;14.80;;;6.90;;
74612;SDS011;63119;51.788;8.824;2023-01-23T06:53:07;14.73;;;6.80;;
74612;SDS011;63119;51.788;8.824;2023-01-23T06:55:33;15.18;;;7.03;;
74612;SDS011;63119;51.788;8.824;2023-01-23T06:58:00;13.40;;;6.40;;
74612;SDS011;63119;51.788;8.824;2023-01-23T07:00:25;11.57;;;6.50;;
74612;SDS011;63119;51.788;8.824;2023-01-23T07:02:51;12.63;;;6.40;;
74612;SDS011;63119;51.788;8.824;2023-01-23T07:05:17;12.75;;;6.88;;
74612;SDS011;63119;51.788;8.824;2023-01-23T07:07:42;15.55;;;7.80;;
74612;SDS011;63119;51.788;8.824;2023-01-23T07:10:08;15.13;;;6.97;;
74612;SDS011;63119;51.788;8.824;2023-01-23T07:12:34;14.52;;;6.90;;
74612;SDS011;63119;51.788;8.824;2023-01-23T07:14:59;14.10;;;7.23;;
74612;SDS011;63119;51.788;8.824;2023-01-23T07:17:24;14.13;;;6.87;;
74612;SDS011;63119;51.788;8.824;2023-01-23T07:19:50;13.50;;;7.20;;
74612;SDS011;63119;51.788;8.824;2023-01-23T07:22:16;18.60;;;7.30;;
74612;SDS011;63119;51.788;8.824;2023-01-23T07:24:42;14.75;;;7.57;;
74612;SDS011;63119;51.788;8.824;2023-01-23T07:27:07;16.00;;;8.40;;
74612;SDS011;63119;51.788;8.824;2023-01-23T07:29:33;14.70;;;7.33;;
74612;SDS011;63119;51.788;8.824;2023-01-23T07:31:58;15.63;;;7.43;;
74612;SDS011;63119;51.788;8.824;2023-01-23T07:34:24;14.30;;;7.13;;
74612;SDS011;63119;51.788;8.824;2023-01-23T07:36:50;16.90;;;7.73;;
74612;SDS011;63119;51.788;8.824;2023-01-23T07:39:15;11.60;;;6.93;;
74612;SDS011;63119;51.788;8.824;2023-01-23T07:41:40;15.17;;;7.70;;
74612;SDS011;63119;51.788;8.824;2023-01-23T07:44:06;14.33;;;7.17;;
74612;SDS011;63119;51.788;8.824;2023-01-23T07:46:31;14.33;;;7.27;;
74612;SDS011;63119;51.788;8.824;2023-01-23T07:48:56;16.97;;;7.43;;
74612;SDS011;63119;51.788;8.824;2023-01-23T07:51:21;15.47;;;7.63;;
74612;SDS011;63119;51.788;8.824;2023-01-23T07:53:46;15.03;;;7.13;;
74612;SDS011;63119;51.788;8.824;2023-01-23T07:56:12;12.63;;;6.27;;
74612;SDS011;63119;51.788;8.824;2023-01-23T07:58:37;13.60;;;7.43;;
74612;SDS011;63119;51.788;8.824;2023-01-23T08:01:06;17.70;;;7.90;;
74612;SDS011;63119;51.788;8.824;2023-01-23T08:03:33;15.25;;;7.63;;
74612;SDS011;63119;51.788;8.824;2023-01-23T08:05:58;14.80;;;7.60;;
74612;SDS011;63119;51.788;8.824;2023-01-23T08:08:24;15.50;;;7.72;;
74612;SDS011;63119;51.788;8.824;2023-01-23T08:10:49;13.80;;;6.70;;
74612;SDS011;63119;51.788;8.824;2023-01-23T08:13:14;13.43;;;6.60;;
74612;SDS011;63119;51.788;8.824;2023-01-23T08:15:39;13.07;;;6.40;;
74612;SDS011;63119;51.788;8.824;2023-01-23T08:18:04;13.83;;;6.33;;
74612;SDS011;63119;51.788;8.824;2023-01-23T08:20:30;13.00;;;6.63;;
74612;SDS011;63119;51.788;8.824;2023-01-23T08:22:55;13.03;;;6.63;;
74612;SDS011;63119;51.788;8.824;2023-01-23T08:25:22;13.00;;;7.30;;
74612;SDS011;63119;51.788;8.824;2023-01-23T08:27:48;14.48;;;7.35;;
74612;SDS011;63119;51.788;8.824;2023-01-23T08:30:13;13.10;;;7.03;;
74612;SDS011;63119;51.788;8.824;2023-01-23T08:32:39;14.90;;;7.25;;
74612;SDS011;63119;51.788;8.824;2023-01-23T08:35:04;13.93;;;7.23;;
74612;SDS011;63119;51.788;8.824;2023-01-23T08:37:30;14.15;;;6.53;;
74612;SDS011;63119;51.788;8.824;2023-01-23T08:39:57;16.45;;;7.70;;
74612;SDS011;63119;51.788;8.824;2023-01-23T08:42:22;15.57;;;6.83;;
74612;SDS011;63119;51.788;8.824;2023-01-23T08:44:47;13.80;;;7.43;;
74612;SDS011;63119;51.788;8.824;2023-01-23T08:47:12;14.87;;;6.40;;
74612;SDS011;63119;51.788;8.824;2023-01-23T08:49:38;13.30;;;6.43;;
74612;SDS011;63119;51.788;8.824;2023-01-23T08:52:03;13.80;;;7.37;;
74612;SDS011;63119;51.788;8.824;2023-01-23T08:54:29;13.80;;;7.45;;
74612;SDS011;63119;51.788;8.824;2023-01-23T08:56:55;17.38;;;8.25;;
74612;SDS011;63119;51.788;8.824;2023-01-23T08:59:20;13.47;;;6.93;;
74612;SDS011;63119;51.788;8.824;2023-01-23T09:01:46;11.93;;;7.00;;
74612;SDS011;63119;51.788;8.824;2023-01-23T09:04:11;13.55;;;6.13;;
74612;SDS011;63119;51.788;8.824;2023-01-23T09:06:37;14.60;;;7.97;;
74612;SDS011;63119;51.788;8.824;2023-01-23T09:09:02;16.38;;;7.80;;
74612;SDS011;63119;51.788;8.824;2023-01-23T09:11:28;16.43;;;7.37;;
74612;SDS011;63119;51.788;8.824;2023-01-23T09:13:53;10.93;;;6.73;;
74612;SDS011;63119;51.788;8.824;2023-01-23T09:16:18;15.10;;;6.80;;
74612;SDS011;63119;51.788;8.824;2023-01-23T09:18:43;13.13;;;7.20;;
74612;SDS011;63119;51.788;8.824;2023-01-23T09:21:10;14.83;;;7.27;;
74612;SDS011;63119;51.788;8.824;2023-01-23T09:23:37;16.23;;;8.15;;
74612;SDS011;63119;51.788;8.824;2023-01-23T09:26:07;13.47;;;7.47;;
74612;SDS011;63119;51.788;8.824;2023-01-23T09:28:34;14.85;;;6.85;;
74612;SDS011;63119;51.788;8.824;2023-01-23T09:31:02;16.98;;;7.63;;
74612;SDS011;63119;51.788;8.824;2023-01-23T09:33:28;14.48;;;7.93;;
74612;SDS011;63119;51.788;8.824;2023-01-23T09:35:54;17.90;;;8.37;;
74612;SDS011;63119;51.788;8.824;2023-01-23T09:38:19;19.17;;;8.30;;
74612;SDS011;63119;51.788;8.824;2023-01-23T09:40:47;17.70;;;9.10;;
74612;SDS011;63119;51.788;8.824;2023-01-23T09:43:15;19.35;;;8.90;;
74612;SDS011;63119;51.788;8.824;2023-01-23T09:45:57;19.88;;;10.15;;
74612;SDS011;63119;51.788;8.824;2023-01-23T09:50:59;18.23;;;9.35;;
74612;SDS011;63119;51.788;8.824;2023-01-23T09:53:34;19.27;;;9.13;;
74612;SDS011;63119;51.788;8.824;2023-01-23T09:59:00;16.42;;;8.25;;
74612;SDS011;63119;51.788;8.824;2023-01-23T10:01:30;17.58;;;8.60;;
74612;SDS011;63119;51.788;8.824;2023-01-23T10:03:57;17.07;;;8.43;;
74612;SDS011;63119;51.788;8.824;2023-01-23T10:06:25;14.43;;;7.68;;
74612;SDS011;63119;51.788;8.824;2023-01-23T10:12:03;12.93;;;7.15;;
74612;SDS011;63119;51.788;8.824;2023-01-23T10:17:41;14.45;;;7.47;;
74612;SDS011;63119;51.788;8.824;2023-01-23T10:26:14;14.95;;;7.30;;
74612;SDS011;63119;51.788;8.824;2023-01-23T10:28:44;13.65;;;7.88;;
74612;SDS011;63119;51.788;8.824;2023-01-23T10:31:14;16.40;;;7.95;;
74612;SDS011;63119;51.788;8.824;2023-01-23T10:33:56;16.92;;;8.98;;
74612;SDS011;63119;51.788;8.824;2023-01-23T10:36:34;15.52;;;7.28;;
74612;SDS011;63119;51.788;8.824;2023-01-23T10:39:18;15.70;;;8.05;;
74612;SDS011;63119;51.788;8.824;2023-01-23T10:41:49;19.80;;;8.32;;
74612;SDS011;63119;51.788;8.824;2023-01-23T10:44:15;14.83;;;8.07;;
74612;SDS011;63119;51.788;8.824;2023-01-23T10:49:34;17.48;;;8.98;;
74612;SDS011;63119;51.788;8.824;2023-01-23T10:52:02;17.77;;;9.13;;
74612;SDS011;63119;51.788;8.824;2023-01-23T10:54:28;19.02;;;9.52;;
74612;SDS011;63119;51.788;8.824;2023-01-23T10:56:55;17.92;;;9.10;;
74612;SDS011;63119;51.788;8.824;2023-01-23T11:04:38;14.88;;;8.45;;
74612;SDS011;63119;51.788;8.824;2023-01-23T11:07:11;16.88;;;8.77;;
74612;SDS011;63119;51.788;8.824;2023-01-23T11:09:48;18.25;;;8.32;;
74612;SDS011;63119;51.788;8.824;2023-01-23T11:12:20;16.50;;;9.27;;
74612;SDS011;63119;51.788;8.824;2023-01-23T11:14:50;19.20;;;8.40;;
74612;SDS011;63119;51.788;8.824;2023-01-23T11:17:34;18.30;;;8.82;;
74612;SDS011;63119;51.788;8.824;2023-01-23T11:20:00;16.88;;;8.10;;
74612;SDS011;63119;51.788;8.824;2023-01-23T11:23:13;18.08;;;8.30;;
74612;SDS011;63119;51.788;8.824;2023-01-23T11:25:44;15.55;;;8.65;;
74612;SDS011;63119;51.788;8.824;2023-01-23T11:28:30;16.10;;;7.70;;
74612;SDS011;63119;51.788;8.824;2023-01-23T11:33:47;15.30;;;8.10;;
74612;SDS011;63119;51.788;8.824;2023-01-23T11:36:32;14.25;;;7.43;;
74612;SDS011;63119;51.788;8.824;2023-01-23T11:42:03;13.35;;;7.68;;
74612;SDS011;63119;51.788;8.824;2023-01-23T11:44:28;17.37;;;9.03;;
74612;SDS011;63119;51.788;8.824;2023-01-23T12:00:34;15.85;;;8.57;;
74612;SDS011;63119;51.788;8.824;2023-01-23T12:03:20;14.43;;;8.25;;
74612;SDS011;63119;51.788;8.824;2023-01-23T12:09:00;15.88;;;7.82;;
74612;SDS011;63119;51.788;8.824;2023-01-23T12:14:56;15.98;;;7.85;;
74612;SDS011;63119;51.788;8.824;2023-01-23T12:20:27;16.00;;;8.40;;
74612;SDS011;63119;51.788;8.824;2023-01-23T12:26:10;19.98;;;7.78;;
74612;SDS011;63119;51.788;8.824;2023-01-23T12:31:27;16.60;;;8.35;;
74612;SDS011;63119;51.788;8.824;2023-01-23T12:34:06;17.83;;;8.50;;
74612;SDS011;63119;51.788;8.824;2023-01-23T12:39:37;15.40;;;7.47;;
74612;SDS011;63119;51.788;8.824;2023-01-23T12:42:26;16.52;;;8.88;;
74612;SDS011;63119;51.788;8.824;2023-01-23T12:47:43;17.92;;;9.82;;
74612;SDS011;63119;51.788;8.824;2023-01-23T12:50:20;20.25;;;9.82;;
74612;SDS011;63119;51.788;8.824;2023-01-23T12:53:03;19.25;;;9.63;;
74612;SDS011;63119;51.788;8.824;2023-01-23T12:58:36;16.92;;;8.63;;
74612;SDS011;63119;51.788;8.824;2023-01-23T13:01:15;17.20;;;9.50;;
74612;SDS011;63119;51.788;8.824;2023-01-23T13:04:08;16.90;;;8.63;;
74612;SDS011;63119;51.788;8.824;2023-01-23T13:06:49;20.67;;;8.23;;
74612;SDS011;63119;51.788;8.824;2023-01-23T13:10:24;17.33;;;8.30;;
74612;SDS011;63119;51.788;8.824;2023-01-23T13:12:28;17.98;;;8.02;;
74612;SDS011;63119;51.788;8.824;2023-01-23T13:17:56;18.65;;;8.90;;
74612;SDS011;63119;51.788;8.824;2023-01-23T13:23:41;19.77;;;9.55;;
74612;SDS011;63119;51.788;8.824;2023-01-23T13:28:45;20.92;;;9.82;;
74612;SDS011;63119;51.788;8.824;2023-01-23T13:31:26;20.50;;;9.90;;
74612;SDS011;63119;51.788;8.824;2023-01-23T13:36:48;17.70;;;9.15;;
74612;SDS011;63119;51.788;8.824;2023-01-23T13:39:28;20.98;;;10.10;;
74612;SDS011;63119;51.788;8.824;2023-01-23T13:47:52;20.90;;;9.98;;
74612;SDS011;63119;51.788;8.824;2023-01-23T13:50:44;22.52;;;10.18;;
74612;SDS011;63119;51.788;8.824;2023-01-23T13:53:18;18.13;;;9.13;;
74612;SDS011;63119;51.788;8.824;2023-01-23T13:56:09;22.65;;;9.77;;
74612;SDS011;63119;51.788;8.824;2023-01-23T14:02:00;20.40;;;8.68;;
74612;SDS011;63119;51.788;8.824;2023-01-23T14:05:15;17.73;;;9.13;;
74612;SDS011;63119;51.788;8.824;2023-01-23T14:07:47;20.35;;;9.80;;
74612;SDS011;63119;51.788;8.824;2023-01-23T14:10:22;18.88;;;8.90;;
74612;SDS011;63119;51.788;8.824;2023-01-23T14:12:49;22.10;;;9.73;;
74612;SDS011;63119;51.788;8.824;2023-01-23T14:18:21;19.20;;;8.63;;
74612;SDS011;63119;51.788;8.824;2023-01-23T14:20:51;18.25;;;8.25;;
74612;SDS011;63119;51.788;8.824;2023-01-23T14:23:19;20.75;;;9.65;;
74612;SDS011;63119;51.788;8.824;2023-01-23T14:25:51;18.83;;;8.40;;
74612;SDS011;63119;51.788;8.824;2023-01-23T14:28:16;21.70;;;9.93;;
74612;SDS011;63119;51.788;8.824;2023-01-23T14:30:53;16.20;;;7.95;;
74612;SDS011;63119;51.788;8.824;2023-01-23T14:38:19;18.88;;;9.15;;
74612;SDS011;63119;51.788;8.824;2023-01-23T14:40:50;19.23;;;10.27;;
74612;SDS011;63119;51.788;8.824;2023-01-23T14:43:17;21.25;;;10.35;;
74612;SDS011;63119;51.788;8.824;2023-01-23T14:45:46;21.95;;;10.45;;
74612;SDS011;63119;51.788;8.824;2023-01-23T14:48:13;22.60;;;10.88;;
74612;SDS011;63119;51.788;8.824;2023-01-23T14:50:40;25.30;;;10.98;;
74612;SDS011;63119;51.788;8.824;2023-01-23T14:53:11;23.00;;;10.70;;
74612;SDS011;63119;51.788;8.824;2023-01-23T14:55:39;23.88;;;12.48;;
74612;SDS011;63119;51.788;8.824;2023-01-23T14:58:09;26.00;;;11.95;;
74612;SDS011;63119;51.788;8.824;2023-01-23T15:00:38;26.45;;;12.55;;
74612;SDS011;63119;51.788;8.824;2023-01-23T15:03:05;26.15;;;11.32;;
74612;SDS011;63119;51.788;8.824;2023-01-23T15:05:32;24.65;;;12.52;;
74612;SDS011;63119;51.788;8.824;2023-01-23T15:07:59;27.20;;;13.23;;
74612;SDS011;63119;51.788;8.824;2023-01-23T15:13:05;23.73;;;12.10;;
74612;SDS011;63119;51.788;8.824;2023-01-23T15:15:56;26.27;;;11.68;;
74612;SDS011;63119;51.788;8.824;2023-01-23T15:18:27;23.45;;;11.93;;
74612;SDS011;63119;51.788;8.824;2023-01-23T15:21:02;22.02;;;10.65;;
74612;SDS011;63119;51.788;8.824;2023-01-23T15:23:34;23.02;;;10.15;;
74612;SDS011;63119;51.788;8.824;2023-01-23T15:31:24;23.83;;;10.73;;
74612;SDS011;63119;51.788;8.824;2023-01-23T15:33:50;23.08;;;11.25;;
74612;SDS011;63119;51.788;8.824;2023-01-23T15:36:23;22.77;;;10.43;;
74612;SDS011;63119;51.788;8.824;2023-01-23T15:38:54;20.75;;;9.57;;
74612;SDS011;63119;51.788;8.824;2023-01-23T15:41:35;20.33;;;10.07;;
74612;SDS011;63119;51.788;8.824;2023-01-23T15:44:15;24.10;;;11.43;;
74612;SDS011;63119;51.788;8.824;2023-01-23T15:46:42;21.13;;;9.65;;
74612;SDS011;63119;51.788;8.824;2023-01-23T15:49:07;25.40;;;12.13;;
74612;SDS011;63119;51.788;8.824;2023-01-23T15:51:33;23.00;;;10.38;;
74612;SDS011;63119;51.788;8.824;2023-01-23T15:53:58;21.95;;;10.32;;
74612;SDS011;63119;51.788;8.824;2023-01-23T15:56:28;25.83;;;10.67;;
74612;SDS011;63119;51.788;8.824;2023-01-23T15:58:56;23.73;;;11.88;;
74612;SDS011;63119;51.788;8.824;2023-01-23T16:01:24;22.15;;;11.32;;
74612;SDS011;63119;51.788;8.824;2023-01-23T16:03:50;22.15;;;10.70;;
74612;SDS011;63119;51.788;8.824;2023-01-23T16:06:19;19.77;;;9.25;;
74612;SDS011;63119;51.788;8.824;2023-01-23T16:08:46;24.77;;;11.82;;
74612;SDS011;63119;51.788;8.824;2023-01-23T16:11:12;20.80;;;10.38;;
74612;SDS011;63119;51.788;8.824;2023-01-23T16:13:38;23.38;;;9.48;;
74612;SDS011;63119;51.788;8.824;2023-01-23T16:16:09;23.17;;;10.80;;
74612;SDS011;63119;51.788;8.824;2023-01-23T16:18:36;20.52;;;10.77;;
74612;SDS011;63119;51.788;8.824;2023-01-23T16:21:02;21.97;;;11.03;;
74612;SDS011;63119;51.788;8.824;2023-01-23T16:23:27;24.20;;;10.20;;
74612;SDS011;63119;51.788;8.824;2023-01-23T16:25:52;21.87;;;9.90;;
74612;SDS011;63119;51.788;8.824;2023-01-23T16:28:21;25.63;;;11.13;;
74612;SDS011;63119;51.788;8.824;2023-01-23T16:30:49;20.30;;;8.85;;
74612;SDS011;63119;51.788;8.824;2023-01-23T16:33:16;22.33;;;9.90;;
74612;SDS011;63119;51.788;8.824;2023-01-23T16:35:42;19.67;;;9.82;;
74612;SDS011;63119;51.788;8.824;2023-01-23T16:38:24;21.02;;;9.50;;
74612;SDS011;63119;51.788;8.824;2023-01-23T16:40:52;20.58;;;10.48;;
74612;SDS011;63119;51.788;8.824;2023-01-23T16:43:18;20.17;;;10.48;;
74612;SDS011;63119;51.788;8.824;2023-01-23T16:45:44;21.67;;;10.27;;